sensor_id;sensor_type;location;lat;lon;timestamp;temperature;humidity
13346;DHT22;6742;48.036;15.780;2023-06-10T00:01:37;15.70;99.90
13346;DHT22;6742;48.036;15.780;2023-06-10T00:04:05;15.70;99.90
13346;DHT22;6742;48.036;15.780;2023-06-10T00:06:32;15.70;99.90
13346;DHT22;6742;48.036;15.780;2023-06-10T00:09:02;15.70;99.90
13346;DHT22;6742;48.036;15.780;2023-06-10T00:11:31;15.70;99.90
13346;DHT22;6742;48.036;15.780;2023-06-10T00:13:58;15.60;99.90
13346;DHT22;6742;48.036;15.780;2023-06-10T00:16:25;15.70;99.90
13346;DHT22;6742;48.036;15.780;2023-06-10T00:18:52;15.70;99.90
13346;DHT22;6742;48.036;15.780;2023-06-10T00:21:22;15.70;99.90
13346;DHT22;6742;48.036;15.780;2023-06-10T00:23:50;15.60;99.90
13346;DHT22;6742;48.036;15.780;2023-06-10T00:26:17;15.60;99.90
13346;DHT22;6742;48.036;15.780;2023-06-10T00:28:44;15.60;99.90
13346;DHT22;6742;48.036;15.780;2023-06-10T00:31:11;15.60;99.90
13346;DHT22;6742;48.036;15.780;2023-06-10T00:33:38;15.60;99.90
13346;DHT22;6742;48.036;15.780;2023-06-10T00:36:05;15.60;99.90
13346;DHT22;6742;48.036;15.780;2023-06-10T00:38:34;15.70;99.90
13346;DHT22;6742;48.036;15.780;2023-06-10T00:41:01;15.60;99.90
13346;DHT22;6742;48.036;15.780;2023-06-10T00:43:28;15.70;99.90
13346;DHT22;6742;48.036;15.780;2023-06-10T00:45:55;15.60;99.90
13346;DHT22;6742;48.036;15.780;2023-06-10T00:48:22;15.60;99.90
13346;DHT22;6742;48.036;15.780;2023-06-10T00:50:49;15.50;99.90
13346;DHT22;6742;48.036;15.780;2023-06-10T00:53:16;15.60;99.90
13346;DHT22;6742;48.036;15.780;2023-06-10T00:55:45;15.50;99.90
13346;DHT22;6742;48.036;15.780;2023-06-10T00:58:12;15.60;99.90
13346;DHT22;6742;48.036;15.780;2023-06-10T01:00:39;15.60;99.90
13346;DHT22;6742;48.036;15.780;2023-06-10T01:03:07;15.60;99.90
13346;DHT22;6742;48.036;15.780;2023-06-10T01:05:34;15.60;99.90
13346;DHT22;6742;48.036;15.780;2023-06-10T01:08:09;15.60;99.90
13346;DHT22;6742;48.036;15.780;2023-06-10T01:10:43;15.70;99.90
13346;DHT22;6742;48.036;15.780;2023-06-10T01:13:13;15.70;99.90
13346;DHT22;6742;48.036;15.780;2023-06-10T01:15:41;15.70;99.90
13346;DHT22;6742;48.036;15.780;2023-06-10T01:18:10;15.60;99.90
13346;DHT22;6742;48.036;15.780;2023-06-10T01:20:41;15.60;99.90
13346;DHT22;6742;48.036;15.780;2023-06-10T01:23:11;15.70;99.90
13346;DHT22;6742;48.036;15.780;2023-06-10T01:25:40;15.70;99.90
13346;DHT22;6742;48.036;15.780;2023-06-10T01:28:13;15.60;99.90
13346;DHT22;6742;48.036;15.780;2023-06-10T01:30:48;15.70;99.90
13346;DHT22;6742;48.036;15.780;2023-06-10T01:33:18;15.60;99.90
13346;DHT22;6742;48.036;15.780;2023-06-10T01:35:47;15.60;99.90
13346;DHT22;6742;48.036;15.780;2023-06-10T01:38:16;15.60;99.90
13346;DHT22;6742;48.036;15.780;2023-06-10T01:40:46;15.60;99.90
13346;DHT22;6742;48.036;15.780;2023-06-10T01:43:13;15.60;99.90
13346;DHT22;6742;48.036;15.780;2023-06-10T01:45:40;15.70;99.90
13346;DHT22;6742;48.036;15.780;2023-06-10T01:48:07;15.70;99.90
13346;DHT22;6742;48.036;15.780;2023-06-10T01:50:34;15.60;99.90
13346;DHT22;6742;48.036;15.780;2023-06-10T01:53:03;15.60;99.90
13346;DHT22;6742;48.036;15.780;2023-06-10T01:55:32;15.60;99.90
13346;DHT22;6742;48.036;15.780;2023-06-10T01:57:59;15.60;99.90
13346;DHT22;6742;48.036;15.780;2023-06-10T02:00:26;15.60;99.90
13346;DHT22;6742;48.036;15.780;2023-06-10T02:02:53;15.60;99.90
13346;DHT22;6742;48.036;15.780;2023-06-10T02:05:20;15.60;99.90
13346;DHT22;6742;48.036;15.780;2023-06-10T02:07:47;15.60;99.90
13346;DHT22;6742;48.036;15.780;2023-06-10T02:10:14;15.60;99.90
13346;DHT22;6742;48.036;15.780;2023-06-10T02:12:42;15.60;99.90
13346;DHT22;6742;48.036;15.780;2023-06-10T02:15:09;15.60;99.90
13346;DHT22;6742;48.036;15.780;2023-06-10T02:17:36;15.60;99.90
13346;DHT22;6742;48.036;15.780;2023-06-10T02:20:03;15.60;99.90
13346;DHT22;6742;48.036;15.780;2023-06-10T02:22:33;15.60;99.90
13346;DHT22;6742;48.036;15.780;2023-06-10T02:25:00;15.50;99.90
13346;DHT22;6742;48.036;15.780;2023-06-10T02:27:27;15.60;99.90
13346;DHT22;6742;48.036;15.780;2023-06-10T02:29:55;15.60;99.90
13346;DHT22;6742;48.036;15.780;2023-06-10T02:32:22;15.60;99.90
13346;DHT22;6742;48.036;15.780;2023-06-10T02:34:49;15.60;99.90
13346;DHT22;6742;48.036;15.780;2023-06-10T02:37:17;15.70;99.90
13346;DHT22;6742;48.036;15.780;2023-06-10T02:39:43;15.60;99.90
13346;DHT22;6742;48.036;15.780;2023-06-10T02:42:11;15.70;99.90
13346;DHT22;6742;48.036;15.780;2023-06-10T02:44:38;15.70;99.90
13346;DHT22;6742;48.036;15.780;2023-06-10T02:47:07;15.70;99.90
13346;DHT22;6742;48.036;15.780;2023-06-10T02:49:34;15.70;99.90
13346;DHT22;6742;48.036;15.780;2023-06-10T02:52:01;15.60;99.90
13346;DHT22;6742;48.036;15.780;2023-06-10T02:54:28;15.60;99.90
13346;DHT22;6742;48.036;15.780;2023-06-10T02:56:57;15.60;99.90
13346;DHT22;6742;48.036;15.780;2023-06-10T02:59:24;15.60;99.90
13346;DHT22;6742;48.036;15.780;2023-06-10T03:01:52;15.60;99.90
13346;DHT22;6742;48.036;15.780;2023-06-10T03:04:20;15.60;99.90
13346;DHT22;6742;48.036;15.780;2023-06-10T03:06:49;15.60;99.90
13346;DHT22;6742;48.036;15.780;2023-06-10T03:09:16;15.60;99.90
13346;DHT22;6742;48.036;15.780;2023-06-10T03:11:43;15.50;99.90
13346;DHT22;6742;48.036;15.780;2023-06-10T03:14:10;15.50;99.90
13346;DHT22;6742;48.036;15.780;2023-06-10T03:16:37;15.50;99.90
13346;DHT22;6742;48.036;15.780;2023-06-10T03:19:06;15.50;99.90
13346;DHT22;6742;48.036;15.780;2023-06-10T03:21:35;15.50;99.90
13346;DHT22;6742;48.036;15.780;2023-06-10T03:24:03;15.50;99.90
13346;DHT22;6742;48.036;15.780;2023-06-10T03:26:30;15.50;99.90
13346;DHT22;6742;48.036;15.780;2023-06-10T03:28:57;15.50;99.90
13346;DHT22;6742;48.036;15.780;2023-06-10T03:31:24;15.50;99.90
13346;DHT22;6742;48.036;15.780;2023-06-10T03:33:51;15.50;99.90
13346;DHT22;6742;48.036;15.780;2023-06-10T03:36:18;15.50;99.90
13346;DHT22;6742;48.036;15.780;2023-06-10T03:38:46;15.50;99.90
13346;DHT22;6742;48.036;15.780;2023-06-10T03:41:13;15.50;99.90
13346;DHT22;6742;48.036;15.780;2023-06-10T03:43:40;15.50;99.90
13346;DHT22;6742;48.036;15.780;2023-06-10T03:46:07;15.60;99.90
13346;DHT22;6742;48.036;15.780;2023-06-10T03:48:34;15.60;99.90
13346;DHT22;6742;48.036;15.780;2023-06-10T03:51:02;15.50;99.90
13346;DHT22;6742;48.036;15.780;2023-06-10T03:53:29;15.50;99.90
13346;DHT22;6742;48.036;15.780;2023-06-10T03:55:57;15.50;99.90
13346;DHT22;6742;48.036;15.780;2023-06-10T03:58:24;15.60;99.90
13346;DHT22;6742;48.036;15.780;2023-06-10T04:00:51;15.50;99.90
13346;DHT22;6742;48.036;15.780;2023-06-10T04:03:19;15.40;99.90
13346;DHT22;6742;48.036;15.780;2023-06-10T04:05:46;15.50;99.90
13346;DHT22;6742;48.036;15.780;2023-06-10T04:08:13;15.50;99.90
13346;DHT22;6742;48.036;15.780;2023-06-10T04:10:40;15.50;99.90
13346;DHT22;6742;48.036;15.780;2023-06-10T04:13:09;15.50;99.90
13346;DHT22;6742;48.036;15.780;2023-06-10T04:15:36;15.50;99.90
13346;DHT22;6742;48.036;15.780;2023-06-10T04:18:04;15.50;99.90
13346;DHT22;6742;48.036;15.780;2023-06-10T04:20:31;15.60;99.90
13346;DHT22;6742;48.036;15.780;2023-06-10T04:22:57;15.60;99.90
13346;DHT22;6742;48.036;15.780;2023-06-10T04:25:25;15.70;99.90
13346;DHT22;6742;48.036;15.780;2023-06-10T04:27:52;15.70;99.90
13346;DHT22;6742;48.036;15.780;2023-06-10T04:30:21;15.70;99.90
13346;DHT22;6742;48.036;15.780;2023-06-10T04:32:48;15.70;99.90
13346;DHT22;6742;48.036;15.780;2023-06-10T04:35:15;15.70;99.90
13346;DHT22;6742;48.036;15.780;2023-06-10T04:37:42;15.70;99.90
13346;DHT22;6742;48.036;15.780;2023-06-10T04:40:10;15.70;99.90
13346;DHT22;6742;48.036;15.780;2023-06-10T04:42:37;15.70;99.90
13346;DHT22;6742;48.036;15.780;2023-06-10T04:45:05;15.70;99.90
13346;DHT22;6742;48.036;15.780;2023-06-10T04:47:34;15.70;99.90
13346;DHT22;6742;48.036;15.780;2023-06-10T04:50:01;15.70;99.90
13346;DHT22;6742;48.036;15.780;2023-06-10T04:52:28;15.60;99.90
13346;DHT22;6742;48.036;15.780;2023-06-10T04:54:58;15.60;99.90
13346;DHT22;6742;48.036;15.780;2023-06-10T04:57:25;15.60;99.90
13346;DHT22;6742;48.036;15.780;2023-06-10T04:59:52;15.60;99.90
13346;DHT22;6742;48.036;15.780;2023-06-10T05:02:19;15.70;99.90
13346;DHT22;6742;48.036;15.780;2023-06-10T05:04:48;15.70;99.90
13346;DHT22;6742;48.036;15.780;2023-06-10T05:07:14;15.70;99.90
13346;DHT22;6742;48.036;15.780;2023-06-10T05:09:41;15.70;99.90
13346;DHT22;6742;48.036;15.780;2023-06-10T05:12:09;15.80;99.90
13346;DHT22;6742;48.036;15.780;2023-06-10T05:14:36;15.80;99.90
13346;DHT22;6742;48.036;15.780;2023-06-10T05:17:03;15.90;99.90
13346;DHT22;6742;48.036;15.780;2023-06-10T05:19:31;15.90;99.90
13346;DHT22;6742;48.036;15.780;2023-06-10T05:21:59;15.80;99.90
13346;DHT22;6742;48.036;15.780;2023-06-10T05:24:26;15.90;99.90
13346;DHT22;6742;48.036;15.780;2023-06-10T05:26:53;15.90;99.90
13346;DHT22;6742;48.036;15.780;2023-06-10T05:29:20;15.90;99.90
13346;DHT22;6742;48.036;15.780;2023-06-10T05:31:48;15.90;99.90
13346;DHT22;6742;48.036;15.780;2023-06-10T05:34:15;15.90;99.90
13346;DHT22;6742;48.036;15.780;2023-06-10T05:36:42;16.00;99.90
13346;DHT22;6742;48.036;15.780;2023-06-10T05:39:10;15.90;99.90
13346;DHT22;6742;48.036;15.780;2023-06-10T05:41:37;15.90;99.90
13346;DHT22;6742;48.036;15.780;2023-06-10T05:44:04;16.00;99.90
13346;DHT22;6742;48.036;15.780;2023-06-10T05:46:31;16.00;99.90
13346;DHT22;6742;48.036;15.780;2023-06-10T05:48:58;16.10;99.90
13346;DHT22;6742;48.036;15.780;2023-06-10T05:51:25;16.10;99.90
13346;DHT22;6742;48.036;15.780;2023-06-10T05:53:53;16.10;99.90
13346;DHT22;6742;48.036;15.780;2023-06-10T05:56:21;16.20;99.90
13346;DHT22;6742;48.036;15.780;2023-06-10T05:58:51;16.20;99.90
13346;DHT22;6742;48.036;15.780;2023-06-10T06:01:18;16.20;99.90
13346;DHT22;6742;48.036;15.780;2023-06-10T06:03:48;16.20;99.90
13346;DHT22;6742;48.036;15.780;2023-06-10T06:06:15;16.30;99.90
13346;DHT22;6742;48.036;15.780;2023-06-10T06:08:42;16.30;99.90
13346;DHT22;6742;48.036;15.780;2023-06-10T06:11:09;16.20;99.90
13346;DHT22;6742;48.036;15.780;2023-06-10T06:13:37;16.20;99.90
13346;DHT22;6742;48.036;15.780;2023-06-10T06:16:04;16.30;99.90
13346;DHT22;6742;48.036;15.780;2023-06-10T06:18:31;16.30;99.90
13346;DHT22;6742;48.036;15.780;2023-06-10T06:20:58;16.20;99.90
13346;DHT22;6742;48.036;15.780;2023-06-10T06:23:24;16.30;99.90
13346;DHT22;6742;48.036;15.780;2023-06-10T06:25:51;16.40;99.90
13346;DHT22;6742;48.036;15.780;2023-06-10T06:28:18;16.40;99.90
13346;DHT22;6742;48.036;15.780;2023-06-10T06:30:48;16.50;99.90
13346;DHT22;6742;48.036;15.780;2023-06-10T06:33:14;16.50;99.90
13346;DHT22;6742;48.036;15.780;2023-06-10T06:35:41;16.60;99.90
13346;DHT22;6742;48.036;15.780;2023-06-10T06:38:08;16.70;99.90
13346;DHT22;6742;48.036;15.780;2023-06-10T06:40:35;16.80;99.90
13346;DHT22;6742;48.036;15.780;2023-06-10T06:43:02;16.90;99.90
13346;DHT22;6742;48.036;15.780;2023-06-10T06:45:29;16.90;99.90
13346;DHT22;6742;48.036;15.780;2023-06-10T06:47:57;16.90;99.90
13346;DHT22;6742;48.036;15.780;2023-06-10T06:50:25;17.00;99.90
13346;DHT22;6742;48.036;15.780;2023-06-10T06:52:52;17.10;99.90
13346;DHT22;6742;48.036;15.780;2023-06-10T06:55:19;17.10;99.90
13346;DHT22;6742;48.036;15.780;2023-06-10T06:57:46;17.10;99.90
13346;DHT22;6742;48.036;15.780;2023-06-10T07:00:13;17.20;99.90
13346;DHT22;6742;48.036;15.780;2023-06-10T07:02:40;17.30;99.90
13346;DHT22;6742;48.036;15.780;2023-06-10T07:05:09;17.20;99.90
13346;DHT22;6742;48.036;15.780;2023-06-10T07:07:36;17.20;99.90
13346;DHT22;6742;48.036;15.780;2023-06-10T07:10:03;17.20;99.90
13346;DHT22;6742;48.036;15.780;2023-06-10T07:12:33;17.20;99.90
13346;DHT22;6742;48.036;15.780;2023-06-10T07:15:00;17.20;99.90
13346;DHT22;6742;48.036;15.780;2023-06-10T07:17:27;17.30;99.90
13346;DHT22;6742;48.036;15.780;2023-06-10T07:19:54;17.30;99.90
13346;DHT22;6742;48.036;15.780;2023-06-10T07:22:24;17.30;99.90
13346;DHT22;6742;48.036;15.780;2023-06-10T07:24:51;17.30;99.90
13346;DHT22;6742;48.036;15.780;2023-06-10T07:27:20;17.40;99.90
13346;DHT22;6742;48.036;15.780;2023-06-10T07:29:47;17.50;99.90
13346;DHT22;6742;48.036;15.780;2023-06-10T07:32:14;17.60;99.90
13346;DHT22;6742;48.036;15.780;2023-06-10T07:34:41;17.60;99.90
13346;DHT22;6742;48.036;15.780;2023-06-10T07:37:08;17.70;99.90
13346;DHT22;6742;48.036;15.780;2023-06-10T07:39:36;17.80;99.90
13346;DHT22;6742;48.036;15.780;2023-06-10T07:42:04;17.70;99.90
13346;DHT22;6742;48.036;15.780;2023-06-10T07:44:31;17.60;99.90
13346;DHT22;6742;48.036;15.780;2023-06-10T07:46:58;17.60;99.90
13346;DHT22;6742;48.036;15.780;2023-06-10T07:49:25;17.50;99.90
13346;DHT22;6742;48.036;15.780;2023-06-10T07:51:54;17.50;99.90
13346;DHT22;6742;48.036;15.780;2023-06-10T07:54:21;17.50;99.90
13346;DHT22;6742;48.036;15.780;2023-06-10T07:56:49;17.50;99.90
13346;DHT22;6742;48.036;15.780;2023-06-10T07:59:18;17.50;99.90
13346;DHT22;6742;48.036;15.780;2023-06-10T08:01:45;17.50;99.90
13346;DHT22;6742;48.036;15.780;2023-06-10T08:04:12;17.50;99.90
13346;DHT22;6742;48.036;15.780;2023-06-10T08:06:39;17.60;99.90
13346;DHT22;6742;48.036;15.780;2023-06-10T08:09:06;17.60;99.90
13346;DHT22;6742;48.036;15.780;2023-06-10T08:11:33;17.60;99.90
13346;DHT22;6742;48.036;15.780;2023-06-10T08:14:01;17.50;99.90
13346;DHT22;6742;48.036;15.780;2023-06-10T08:16:28;17.60;99.90
13346;DHT22;6742;48.036;15.780;2023-06-10T08:18:55;17.50;99.90
13346;DHT22;6742;48.036;15.780;2023-06-10T08:21:22;17.60;99.90
13346;DHT22;6742;48.036;15.780;2023-06-10T08:23:52;17.60;99.90
13346;DHT22;6742;48.036;15.780;2023-06-10T08:26:19;17.70;99.90
13346;DHT22;6742;48.036;15.780;2023-06-10T08:28:46;17.70;99.90
13346;DHT22;6742;48.036;15.780;2023-06-10T08:31:14;17.70;99.90
13346;DHT22;6742;48.036;15.780;2023-06-10T08:33:42;17.70;99.90
13346;DHT22;6742;48.036;15.780;2023-06-10T08:36:09;17.70;99.90
13346;DHT22;6742;48.036;15.780;2023-06-10T08:38:36;17.70;99.90
13346;DHT22;6742;48.036;15.780;2023-06-10T08:41:05;17.60;99.90
13346;DHT22;6742;48.036;15.780;2023-06-10T08:43:36;17.70;99.90
13346;DHT22;6742;48.036;15.780;2023-06-10T08:46:04;17.70;99.90
13346;DHT22;6742;48.036;15.780;2023-06-10T08:48:38;17.80;99.90
13346;DHT22;6742;48.036;15.780;2023-06-10T08:51:10;17.80;99.90
13346;DHT22;6742;48.036;15.780;2023-06-10T08:53:41;17.80;99.90
13346;DHT22;6742;48.036;15.780;2023-06-10T08:56:10;17.80;99.90
13346;DHT22;6742;48.036;15.780;2023-06-10T08:58:39;17.80;99.90
13346;DHT22;6742;48.036;15.780;2023-06-10T09:01:07;17.80;99.90
13346;DHT22;6742;48.036;15.780;2023-06-10T09:03:37;17.90;99.90
13346;DHT22;6742;48.036;15.780;2023-06-10T09:06:05;18.10;99.90
13346;DHT22;6742;48.036;15.780;2023-06-10T09:08:33;18.20;99.90
13346;DHT22;6742;48.036;15.780;2023-06-10T09:11:01;18.30;99.90
13346;DHT22;6742;48.036;15.780;2023-06-10T09:13:28;18.50;99.90
13346;DHT22;6742;48.036;15.780;2023-06-10T09:15:56;18.50;99.90
13346;DHT22;6742;48.036;15.780;2023-06-10T09:18:26;18.60;99.90
13346;DHT22;6742;48.036;15.780;2023-06-10T09:20:54;18.70;99.90
13346;DHT22;6742;48.036;15.780;2023-06-10T09:23:21;18.70;99.90
13346;DHT22;6742;48.036;15.780;2023-06-10T09:25:56;18.60;99.90
13346;DHT22;6742;48.036;15.780;2023-06-10T09:28:24;18.60;99.90
13346;DHT22;6742;48.036;15.780;2023-06-10T09:31:02;18.60;99.90
13346;DHT22;6742;48.036;15.780;2023-06-10T09:33:29;18.60;99.90
13346;DHT22;6742;48.036;15.780;2023-06-10T09:35:58;18.60;99.90
13346;DHT22;6742;48.036;15.780;2023-06-10T09:38:30;18.50;99.90
13346;DHT22;6742;48.036;15.780;2023-06-10T09:40:57;18.60;99.90
13346;DHT22;6742;48.036;15.780;2023-06-10T09:43:38;18.60;99.90
13346;DHT22;6742;48.036;15.780;2023-06-10T09:46:06;18.60;99.90
13346;DHT22;6742;48.036;15.780;2023-06-10T09:48:35;18.50;99.90
13346;DHT22;6742;48.036;15.780;2023-06-10T09:51:08;18.40;99.90
13346;DHT22;6742;48.036;15.780;2023-06-10T09:53:35;18.40;99.90
13346;DHT22;6742;48.036;15.780;2023-06-10T09:56:03;18.40;99.90
13346;DHT22;6742;48.036;15.780;2023-06-10T09:58:36;18.50;99.90
13346;DHT22;6742;48.036;15.780;2023-06-10T10:01:08;18.50;99.90
13346;DHT22;6742;48.036;15.780;2023-06-10T10:03:43;18.50;99.90
13346;DHT22;6742;48.036;15.780;2023-06-10T10:06:14;18.60;99.90
13346;DHT22;6742;48.036;15.780;2023-06-10T10:08:41;18.70;99.90
13346;DHT22;6742;48.036;15.780;2023-06-10T10:11:09;18.70;99.90
13346;DHT22;6742;48.036;15.780;2023-06-10T10:13:37;18.80;99.90
13346;DHT22;6742;48.036;15.780;2023-06-10T10:16:10;18.90;99.90
13346;DHT22;6742;48.036;15.780;2023-06-10T10:18:39;19.10;99.90
13346;DHT22;6742;48.036;15.780;2023-06-10T10:21:13;19.20;99.90
13346;DHT22;6742;48.036;15.780;2023-06-10T10:23:44;19.30;99.90
13346;DHT22;6742;48.036;15.780;2023-06-10T10:26:14;19.40;99.90
13346;DHT22;6742;48.036;15.780;2023-06-10T10:28:45;19.40;99.90
13346;DHT22;6742;48.036;15.780;2023-06-10T10:31:18;19.30;99.90
13346;DHT22;6742;48.036;15.780;2023-06-10T10:33:54;19.30;99.90
13346;DHT22;6742;48.036;15.780;2023-06-10T10:36:25;19.30;99.90
13346;DHT22;6742;48.036;15.780;2023-06-10T10:38:53;19.40;99.90
13346;DHT22;6742;48.036;15.780;2023-06-10T10:41:21;19.40;99.90
13346;DHT22;6742;48.036;15.780;2023-06-10T10:43:50;19.30;99.90
13346;DHT22;6742;48.036;15.780;2023-06-10T10:46:18;19.20;99.90
13346;DHT22;6742;48.036;15.780;2023-06-10T10:48:49;19.30;99.90
13346;DHT22;6742;48.036;15.780;2023-06-10T10:51:18;19.40;99.90
13346;DHT22;6742;48.036;15.780;2023-06-10T10:54:09;19.40;99.90
13346;DHT22;6742;48.036;15.780;2023-06-10T10:56:36;19.50;99.90
13346;DHT22;6742;48.036;15.780;2023-06-10T10:59:04;19.70;99.90
13346;DHT22;6742;48.036;15.780;2023-06-10T11:01:40;20.00;99.90
13346;DHT22;6742;48.036;15.780;2023-06-10T11:04:07;20.10;99.90
13346;DHT22;6742;48.036;15.780;2023-06-10T11:06:35;20.30;99.90
13346;DHT22;6742;48.036;15.780;2023-06-10T11:09:26;20.60;99.90
13346;DHT22;6742;48.036;15.780;2023-06-10T11:11:56;20.90;99.90
13346;DHT22;6742;48.036;15.780;2023-06-10T11:14:27;21.10;99.90
13346;DHT22;6742;48.036;15.780;2023-06-10T11:16:57;21.30;99.90
13346;DHT22;6742;48.036;15.780;2023-06-10T11:19:32;21.30;99.90
13346;DHT22;6742;48.036;15.780;2023-06-10T11:22:00;21.30;99.90
13346;DHT22;6742;48.036;15.780;2023-06-10T11:24:29;21.10;99.90
13346;DHT22;6742;48.036;15.780;2023-06-10T11:27:14;21.00;99.90
13346;DHT22;6742;48.036;15.780;2023-06-10T11:29:55;21.00;99.90
13346;DHT22;6742;48.036;15.780;2023-06-10T11:32:23;20.80;99.90
13346;DHT22;6742;48.036;15.780;2023-06-10T11:34:52;20.80;99.90
13346;DHT22;6742;48.036;15.780;2023-06-10T11:37:20;21.00;99.90
13346;DHT22;6742;48.036;15.780;2023-06-10T11:39:51;21.40;99.90
13346;DHT22;6742;48.036;15.780;2023-06-10T11:42:19;21.80;99.90
13346;DHT22;6742;48.036;15.780;2023-06-10T11:44:49;22.00;99.90
13346;DHT22;6742;48.036;15.780;2023-06-10T11:47:17;22.20;99.90
13346;DHT22;6742;48.036;15.780;2023-06-10T11:49:44;22.40;99.90
13346;DHT22;6742;48.036;15.780;2023-06-10T11:52:11;22.80;99.90
13346;DHT22;6742;48.036;15.780;2023-06-10T11:54:38;23.20;99.90
13346;DHT22;6742;48.036;15.780;2023-06-10T11:57:06;23.30;99.90
13346;DHT22;6742;48.036;15.780;2023-06-10T11:59:34;23.40;99.90
13346;DHT22;6742;48.036;15.780;2023-06-10T12:02:01;23.50;99.90
13346;DHT22;6742;48.036;15.780;2023-06-10T12:04:28;23.40;99.90
13346;DHT22;6742;48.036;15.780;2023-06-10T12:06:55;23.30;99.90
13346;DHT22;6742;48.036;15.780;2023-06-10T12:09:23;23.40;99.90
13346;DHT22;6742;48.036;15.780;2023-06-10T12:11:52;23.70;99.90
13346;DHT22;6742;48.036;15.780;2023-06-10T12:14:52;23.80;99.90
13346;DHT22;6742;48.036;15.780;2023-06-10T12:17:23;23.60;99.90
13346;DHT22;6742;48.036;15.780;2023-06-10T12:19:50;23.50;99.90
13346;DHT22;6742;48.036;15.780;2023-06-10T12:22:17;23.50;99.90
13346;DHT22;6742;48.036;15.780;2023-06-10T12:24:56;23.50;99.90
13346;DHT22;6742;48.036;15.780;2023-06-10T12:27:24;23.30;99.90
13346;DHT22;6742;48.036;15.780;2023-06-10T12:29:56;23.10;99.90
13346;DHT22;6742;48.036;15.780;2023-06-10T12:32:35;22.90;99.90
13346;DHT22;6742;48.036;15.780;2023-06-10T12:35:03;22.70;99.90
13346;DHT22;6742;48.036;15.780;2023-06-10T12:37:30;22.50;99.90
13346;DHT22;6742;48.036;15.780;2023-06-10T12:40:00;22.30;99.90
13346;DHT22;6742;48.036;15.780;2023-06-10T12:42:28;22.10;99.90
13346;DHT22;6742;48.036;15.780;2023-06-10T12:44:57;22.20;99.90
13346;DHT22;6742;48.036;15.780;2023-06-10T12:47:30;22.10;99.90
13346;DHT22;6742;48.036;15.780;2023-06-10T12:49:58;22.40;99.90
13346;DHT22;6742;48.036;15.780;2023-06-10T12:52:25;22.80;99.90
13346;DHT22;6742;48.036;15.780;2023-06-10T12:54:52;22.90;99.90
13346;DHT22;6742;48.036;15.780;2023-06-10T12:57:20;23.10;99.90
13346;DHT22;6742;48.036;15.780;2023-06-10T12:59:47;23.10;99.90
13346;DHT22;6742;48.036;15.780;2023-06-10T13:02:19;23.20;99.90
13346;DHT22;6742;48.036;15.780;2023-06-10T13:04:49;23.20;99.90
13346;DHT22;6742;48.036;15.780;2023-06-10T13:07:19;23.30;99.90
13346;DHT22;6742;48.036;15.780;2023-06-10T13:09:48;23.20;99.90
13346;DHT22;6742;48.036;15.780;2023-06-10T13:12:15;23.20;99.90
13346;DHT22;6742;48.036;15.780;2023-06-10T13:14:43;23.10;99.90
13346;DHT22;6742;48.036;15.780;2023-06-10T13:17:10;23.00;99.90
13346;DHT22;6742;48.036;15.780;2023-06-10T13:19:38;22.80;99.90
13346;DHT22;6742;48.036;15.780;2023-06-10T13:22:05;22.80;99.90
13346;DHT22;6742;48.036;15.780;2023-06-10T13:24:32;22.80;99.90
13346;DHT22;6742;48.036;15.780;2023-06-10T13:26:59;22.70;99.90
13346;DHT22;6742;48.036;15.780;2023-06-10T13:29:26;22.70;99.90
13346;DHT22;6742;48.036;15.780;2023-06-10T13:31:53;22.80;99.90
13346;DHT22;6742;48.036;15.780;2023-06-10T13:34:20;23.00;99.90
13346;DHT22;6742;48.036;15.780;2023-06-10T13:36:48;23.00;99.90
13346;DHT22;6742;48.036;15.780;2023-06-10T13:39:15;23.10;99.90
13346;DHT22;6742;48.036;15.780;2023-06-10T13:41:42;23.00;99.90
13346;DHT22;6742;48.036;15.780;2023-06-10T13:44:09;23.00;99.90
13346;DHT22;6742;48.036;15.780;2023-06-10T13:46:35;22.90;99.90
13346;DHT22;6742;48.036;15.780;2023-06-10T13:49:02;22.70;99.90
13346;DHT22;6742;48.036;15.780;2023-06-10T13:51:29;22.60;99.90
13346;DHT22;6742;48.036;15.780;2023-06-10T13:53:58;22.60;99.90
13346;DHT22;6742;48.036;15.780;2023-06-10T13:56:24;22.50;99.90
13346;DHT22;6742;48.036;15.780;2023-06-10T13:58:51;22.30;99.90
13346;DHT22;6742;48.036;15.780;2023-06-10T14:01:18;22.20;99.90
13346;DHT22;6742;48.036;15.780;2023-06-10T14:03:45;22.10;99.90
13346;DHT22;6742;48.036;15.780;2023-06-10T14:06:12;22.00;99.90
13346;DHT22;6742;48.036;15.780;2023-06-10T14:08:46;21.80;99.90
13346;DHT22;6742;48.036;15.780;2023-06-10T14:11:14;21.50;99.90
13346;DHT22;6742;48.036;15.780;2023-06-10T14:13:41;21.40;99.90
13346;DHT22;6742;48.036;15.780;2023-06-10T14:16:08;21.30;99.90
13346;DHT22;6742;48.036;15.780;2023-06-10T14:18:35;21.30;99.90
13346;DHT22;6742;48.036;15.780;2023-06-10T14:21:02;21.30;99.90
13346;DHT22;6742;48.036;15.780;2023-06-10T14:23:29;21.20;99.90
13346;DHT22;6742;48.036;15.780;2023-06-10T14:25:56;21.00;99.90
13346;DHT22;6742;48.036;15.780;2023-06-10T14:28:24;20.80;99.90
13346;DHT22;6742;48.036;15.780;2023-06-10T14:30:53;20.80;99.90
13346;DHT22;6742;48.036;15.780;2023-06-10T14:33:20;20.90;99.90
13346;DHT22;6742;48.036;15.780;2023-06-10T14:35:47;20.80;99.90
13346;DHT22;6742;48.036;15.780;2023-06-10T14:38:14;20.70;99.90
13346;DHT22;6742;48.036;15.780;2023-06-10T14:40:40;20.60;99.90
13346;DHT22;6742;48.036;15.780;2023-06-10T14:43:07;20.50;99.90
13346;DHT22;6742;48.036;15.780;2023-06-10T14:45:37;20.50;99.90
13346;DHT22;6742;48.036;15.780;2023-06-10T14:48:05;20.50;99.90
13346;DHT22;6742;48.036;15.780;2023-06-10T14:50:32;20.50;99.90
13346;DHT22;6742;48.036;15.780;2023-06-10T14:52:59;20.40;99.90
13346;DHT22;6742;48.036;15.780;2023-06-10T14:55:26;20.40;99.90
13346;DHT22;6742;48.036;15.780;2023-06-10T14:57:53;20.50;99.90
13346;DHT22;6742;48.036;15.780;2023-06-10T15:00:20;20.60;99.90
13346;DHT22;6742;48.036;15.780;2023-06-10T15:02:51;20.60;99.90
13346;DHT22;6742;48.036;15.780;2023-06-10T15:05:18;20.50;99.90
13346;DHT22;6742;48.036;15.780;2023-06-10T15:07:46;20.60;99.90
13346;DHT22;6742;48.036;15.780;2023-06-10T15:10:13;20.60;99.90
13346;DHT22;6742;48.036;15.780;2023-06-10T15:12:41;20.50;99.90
13346;DHT22;6742;48.036;15.780;2023-06-10T15:15:08;20.50;99.90
13346;DHT22;6742;48.036;15.780;2023-06-10T15:17:35;20.30;99.90
13346;DHT22;6742;48.036;15.780;2023-06-10T15:20:05;20.40;99.90
13346;DHT22;6742;48.036;15.780;2023-06-10T15:22:32;20.40;99.90
13346;DHT22;6742;48.036;15.780;2023-06-10T15:24:59;20.40;99.90
13346;DHT22;6742;48.036;15.780;2023-06-10T15:27:26;20.30;99.90
13346;DHT22;6742;48.036;15.780;2023-06-10T15:29:53;20.30;99.90
13346;DHT22;6742;48.036;15.780;2023-06-10T15:32:20;20.30;99.90
13346;DHT22;6742;48.036;15.780;2023-06-10T15:34:47;20.40;99.90
13346;DHT22;6742;48.036;15.780;2023-06-10T15:37:15;20.40;99.90